sensor_id;sensor_type;location;lat;lon;timestamp;temperature;humidity
35325;DHT22;35135;47.510;19.036;2023-12-20T00:01:24;20.60;48.40
35325;DHT22;35135;47.510;19.036;2023-12-20T00:03:49;20.60;48.40
35325;DHT22;35135;47.510;19.036;2023-12-20T00:06:15;20.60;48.40
35325;DHT22;35135;47.510;19.036;2023-12-20T00:08:40;20.60;48.40
35325;DHT22;35135;47.510;19.036;2023-12-20T00:11:06;20.60;48.40
35325;DHT22;35135;47.510;19.036;2023-12-20T00:13:32;20.60;48.40
35325;DHT22;35135;47.510;19.036;2023-12-20T00:15:58;20.60;48.40
35325;DHT22;35135;47.510;19.036;2023-12-20T00:18:24;20.60;48.40
35325;DHT22;35135;47.510;19.036;2023-12-20T00:20:49;20.50;48.40
35325;DHT22;35135;47.510;19.036;2023-12-20T00:23:15;20.50;48.40
35325;DHT22;35135;47.510;19.036;2023-12-20T00:25:41;20.50;48.40
35325;DHT22;35135;47.510;19.036;2023-12-20T00:28:06;20.50;48.90
35325;DHT22;35135;47.510;19.036;2023-12-20T00:30:32;20.50;48.40
35325;DHT22;35135;47.510;19.036;2023-12-20T00:32:58;20.50;48.50
35325;DHT22;35135;47.510;19.036;2023-12-20T00:35:23;20.50;48.40
35325;DHT22;35135;47.510;19.036;2023-12-20T00:37:49;20.50;48.40
35325;DHT22;35135;47.510;19.036;2023-12-20T00:40:15;20.50;48.50
35325;DHT22;35135;47.510;19.036;2023-12-20T00:42:41;20.50;48.40
35325;DHT22;35135;47.510;19.036;2023-12-20T00:45:07;20.50;48.40
35325;DHT22;35135;47.510;19.036;2023-12-20T00:47:32;20.40;48.40
35325;DHT22;35135;47.510;19.036;2023-12-20T00:49:58;20.40;48.40
35325;DHT22;35135;47.510;19.036;2023-12-20T00:52:24;20.40;48.40
35325;DHT22;35135;47.510;19.036;2023-12-20T00:54:50;20.40;48.40
35325;DHT22;35135;47.510;19.036;2023-12-20T00:57:16;20.40;48.40
35325;DHT22;35135;47.510;19.036;2023-12-20T00:59:42;20.40;48.40
35325;DHT22;35135;47.510;19.036;2023-12-20T01:02:07;20.40;48.40
35325;DHT22;35135;47.510;19.036;2023-12-20T01:04:34;20.40;48.40
35325;DHT22;35135;47.510;19.036;2023-12-20T01:07:00;20.40;48.40
35325;DHT22;35135;47.510;19.036;2023-12-20T01:09:25;20.40;48.40
35325;DHT22;35135;47.510;19.036;2023-12-20T01:11:54;20.40;48.40
35325;DHT22;35135;47.510;19.036;2023-12-20T01:14:20;20.40;48.40
35325;DHT22;35135;47.510;19.036;2023-12-20T01:16:46;20.40;48.40
35325;DHT22;35135;47.510;19.036;2023-12-20T01:19:12;20.40;48.40
35325;DHT22;35135;47.510;19.036;2023-12-20T01:21:39;20.40;48.40
35325;DHT22;35135;47.510;19.036;2023-12-20T01:24:04;20.30;48.30
35325;DHT22;35135;47.510;19.036;2023-12-20T01:26:30;20.30;48.40
35325;DHT22;35135;47.510;19.036;2023-12-20T01:28:56;20.30;48.40
35325;DHT22;35135;47.510;19.036;2023-12-20T01:31:21;20.30;48.40
35325;DHT22;35135;47.510;19.036;2023-12-20T01:33:47;20.30;48.40
35325;DHT22;35135;47.510;19.036;2023-12-20T01:36:13;20.30;48.40
35325;DHT22;35135;47.510;19.036;2023-12-20T01:38:38;20.30;48.40
35325;DHT22;35135;47.510;19.036;2023-12-20T01:41:04;20.30;48.40
35325;DHT22;35135;47.510;19.036;2023-12-20T01:43:30;20.30;48.40
35325;DHT22;35135;47.510;19.036;2023-12-20T01:45:58;20.30;48.40
35325;DHT22;35135;47.510;19.036;2023-12-20T01:48:25;20.30;48.40
35325;DHT22;35135;47.510;19.036;2023-12-20T01:50:51;20.30;48.40
35325;DHT22;35135;47.510;19.036;2023-12-20T01:53:20;20.20;48.40
35325;DHT22;35135;47.510;19.036;2023-12-20T01:55:48;20.20;48.40
35325;DHT22;35135;47.510;19.036;2023-12-20T01:58:14;20.20;48.40
35325;DHT22;35135;47.510;19.036;2023-12-20T02:00:40;20.20;48.40
35325;DHT22;35135;47.510;19.036;2023-12-20T02:03:06;20.20;48.40
35325;DHT22;35135;47.510;19.036;2023-12-20T02:05:34;20.20;48.40
35325;DHT22;35135;47.510;19.036;2023-12-20T02:08:00;20.20;48.40
35325;DHT22;35135;47.510;19.036;2023-12-20T02:10:26;20.20;48.40
35325;DHT22;35135;47.510;19.036;2023-12-20T02:12:52;20.20;48.40
35325;DHT22;35135;47.510;19.036;2023-12-20T02:15:18;20.20;48.40
35325;DHT22;35135;47.510;19.036;2023-12-20T02:17:44;20.20;48.40
35325;DHT22;35135;47.510;19.036;2023-12-20T02:20:10;20.20;48.40
35325;DHT22;35135;47.510;19.036;2023-12-20T02:22:36;20.20;48.40
35325;DHT22;35135;47.510;19.036;2023-12-20T02:25:02;20.20;48.40
35325;DHT22;35135;47.510;19.036;2023-12-20T02:27:29;20.20;48.40
35325;DHT22;35135;47.510;19.036;2023-12-20T02:29:55;20.20;48.40
35325;DHT22;35135;47.510;19.036;2023-12-20T02:32:21;20.20;48.40
35325;DHT22;35135;47.510;19.036;2023-12-20T02:34:48;20.20;48.40
35325;DHT22;35135;47.510;19.036;2023-12-20T02:37:14;20.20;48.40
35325;DHT22;35135;47.510;19.036;2023-12-20T02:39:40;20.10;48.40
35325;DHT22;35135;47.510;19.036;2023-12-20T02:42:05;20.20;48.40
35325;DHT22;35135;47.510;19.036;2023-12-20T02:44:31;20.10;48.40
35325;DHT22;35135;47.510;19.036;2023-12-20T02:46:57;20.10;48.40
35325;DHT22;35135;47.510;19.036;2023-12-20T02:49:22;20.10;48.40
35325;DHT22;35135;47.510;19.036;2023-12-20T02:51:48;20.10;48.40
35325;DHT22;35135;47.510;19.036;2023-12-20T02:54:14;20.10;48.30
35325;DHT22;35135;47.510;19.036;2023-12-20T02:56:39;20.10;48.40
35325;DHT22;35135;47.510;19.036;2023-12-20T02:59:05;20.10;48.40
35325;DHT22;35135;47.510;19.036;2023-12-20T03:01:31;20.10;48.30
35325;DHT22;35135;47.510;19.036;2023-12-20T03:03:57;20.10;48.30
35325;DHT22;35135;47.510;19.036;2023-12-20T03:06:23;20.10;48.40
35325;DHT22;35135;47.510;19.036;2023-12-20T03:08:49;20.10;48.30
35325;DHT22;35135;47.510;19.036;2023-12-20T03:11:14;20.10;48.40
35325;DHT22;35135;47.510;19.036;2023-12-20T03:13:40;20.10;48.30
35325;DHT22;35135;47.510;19.036;2023-12-20T03:16:14;20.10;48.30
35325;DHT22;35135;47.510;19.036;2023-12-20T03:18:42;20.10;48.30
35325;DHT22;35135;47.510;19.036;2023-12-20T03:21:07;20.00;48.30
35325;DHT22;35135;47.510;19.036;2023-12-20T03:23:33;20.00;48.30
35325;DHT22;35135;47.510;19.036;2023-12-20T03:25:59;20.10;48.30
35325;DHT22;35135;47.510;19.036;2023-12-20T03:28:26;20.00;48.30
35325;DHT22;35135;47.510;19.036;2023-12-20T03:30:52;20.00;48.30
35325;DHT22;35135;47.510;19.036;2023-12-20T03:33:18;20.00;48.30
35325;DHT22;35135;47.510;19.036;2023-12-20T03:35:43;20.00;48.30
35325;DHT22;35135;47.510;19.036;2023-12-20T03:38:09;20.00;48.30
35325;DHT22;35135;47.510;19.036;2023-12-20T03:40:35;20.00;48.30
35325;DHT22;35135;47.510;19.036;2023-12-20T03:43:00;20.00;48.30
35325;DHT22;35135;47.510;19.036;2023-12-20T03:45:26;20.00;48.30
35325;DHT22;35135;47.510;19.036;2023-12-20T03:47:52;20.00;48.30
35325;DHT22;35135;47.510;19.036;2023-12-20T03:50:25;20.00;48.30
35325;DHT22;35135;47.510;19.036;2023-12-20T03:52:51;20.00;48.30
35325;DHT22;35135;47.510;19.036;2023-12-20T03:55:17;20.00;48.30
35325;DHT22;35135;47.510;19.036;2023-12-20T03:57:42;20.00;48.30
35325;DHT22;35135;47.510;19.036;2023-12-20T04:00:08;20.00;48.30
35325;DHT22;35135;47.510;19.036;2023-12-20T04:02:38;20.00;48.20
35325;DHT22;35135;47.510;19.036;2023-12-20T04:05:04;20.00;48.20
35325;DHT22;35135;47.510;19.036;2023-12-20T04:07:30;19.90;48.20
35325;DHT22;35135;47.510;19.036;2023-12-20T04:09:56;20.00;48.20
35325;DHT22;35135;47.510;19.036;2023-12-20T04:12:21;20.00;48.30
35325;DHT22;35135;47.510;19.036;2023-12-20T04:14:47;20.00;48.20
35325;DHT22;35135;47.510;19.036;2023-12-20T04:17:13;19.90;48.20
35325;DHT22;35135;47.510;19.036;2023-12-20T04:19:39;20.00;48.30
35325;DHT22;35135;47.510;19.036;2023-12-20T04:22:05;20.00;48.30
35325;DHT22;35135;47.510;19.036;2023-12-20T04:24:30;20.00;48.20
35325;DHT22;35135;47.510;19.036;2023-12-20T04:26:56;19.90;48.10
35325;DHT22;35135;47.510;19.036;2023-12-20T04:29:22;19.90;48.20
35325;DHT22;35135;47.510;19.036;2023-12-20T04:31:47;19.90;48.20
35325;DHT22;35135;47.510;19.036;2023-12-20T04:34:13;19.90;48.20
35325;DHT22;35135;47.510;19.036;2023-12-20T04:36:39;19.90;48.20
35325;DHT22;35135;47.510;19.036;2023-12-20T04:39:04;19.90;48.20
35325;DHT22;35135;47.510;19.036;2023-12-20T04:41:30;19.90;48.20
35325;DHT22;35135;47.510;19.036;2023-12-20T04:43:55;19.90;48.20
35325;DHT22;35135;47.510;19.036;2023-12-20T04:46:21;19.90;48.20
35325;DHT22;35135;47.510;19.036;2023-12-20T04:48:47;19.90;48.20
35325;DHT22;35135;47.510;19.036;2023-12-20T04:51:12;19.90;48.20
35325;DHT22;35135;47.510;19.036;2023-12-20T04:53:38;19.90;48.20
35325;DHT22;35135;47.510;19.036;2023-12-20T04:56:04;19.90;48.20
35325;DHT22;35135;47.510;19.036;2023-12-20T04:58:29;19.90;48.20
35325;DHT22;35135;47.510;19.036;2023-12-20T05:00:55;19.90;48.20
35325;DHT22;35135;47.510;19.036;2023-12-20T05:03:21;19.90;48.20
35325;DHT22;35135;47.510;19.036;2023-12-20T05:05:46;19.90;48.20
35325;DHT22;35135;47.510;19.036;2023-12-20T05:08:12;19.90;48.20
35325;DHT22;35135;47.510;19.036;2023-12-20T05:10:37;19.90;48.20
35325;DHT22;35135;47.510;19.036;2023-12-20T05:13:03;19.90;48.30
35325;DHT22;35135;47.510;19.036;2023-12-20T05:15:29;19.90;48.20
35325;DHT22;35135;47.510;19.036;2023-12-20T05:17:55;20.00;48.00
35325;DHT22;35135;47.510;19.036;2023-12-20T05:20:20;20.10;48.10
35325;DHT22;35135;47.510;19.036;2023-12-20T05:22:46;20.20;48.00
35325;DHT22;35135;47.510;19.036;2023-12-20T05:25:12;20.30;47.90
35325;DHT22;35135;47.510;19.036;2023-12-20T05:27:38;20.40;47.70
35325;DHT22;35135;47.510;19.036;2023-12-20T05:30:04;20.50;47.50
35325;DHT22;35135;47.510;19.036;2023-12-20T05:32:30;20.70;47.30
35325;DHT22;35135;47.510;19.036;2023-12-20T05:34:56;20.80;47.10
35325;DHT22;35135;47.510;19.036;2023-12-20T05:37:22;20.90;46.90
35325;DHT22;35135;47.510;19.036;2023-12-20T05:39:47;20.90;46.70
35325;DHT22;35135;47.510;19.036;2023-12-20T05:42:13;21.00;46.60
35325;DHT22;35135;47.510;19.036;2023-12-20T05:44:39;21.10;46.40
35325;DHT22;35135;47.510;19.036;2023-12-20T05:47:04;21.10;46.40
35325;DHT22;35135;47.510;19.036;2023-12-20T05:49:30;21.20;46.30
35325;DHT22;35135;47.510;19.036;2023-12-20T05:51:57;21.20;46.30
35325;DHT22;35135;47.510;19.036;2023-12-20T05:54:22;21.20;46.20
35325;DHT22;35135;47.510;19.036;2023-12-20T05:56:48;21.20;46.30
35325;DHT22;35135;47.510;19.036;2023-12-20T05:59:14;21.20;46.30
35325;DHT22;35135;47.510;19.036;2023-12-20T06:01:40;21.20;46.20
35325;DHT22;35135;47.510;19.036;2023-12-20T06:04:05;21.30;46.10
35325;DHT22;35135;47.510;19.036;2023-12-20T06:06:31;21.30;46.30
35325;DHT22;35135;47.510;19.036;2023-12-20T06:08:57;21.20;46.20
35325;DHT22;35135;47.510;19.036;2023-12-20T06:11:23;21.20;46.20
35325;DHT22;35135;47.510;19.036;2023-12-20T06:13:49;21.20;46.30
35325;DHT22;35135;47.510;19.036;2023-12-20T06:16:17;21.20;46.30
35325;DHT22;35135;47.510;19.036;2023-12-20T06:18:43;21.20;46.30
35325;DHT22;35135;47.510;19.036;2023-12-20T06:21:09;21.20;46.30
35325;DHT22;35135;47.510;19.036;2023-12-20T06:23:38;21.20;46.40
35325;DHT22;35135;47.510;19.036;2023-12-20T06:26:04;21.20;46.40
35325;DHT22;35135;47.510;19.036;2023-12-20T06:28:30;21.20;46.40
35325;DHT22;35135;47.510;19.036;2023-12-20T06:30:55;21.10;46.30
35325;DHT22;35135;47.510;19.036;2023-12-20T06:33:22;21.10;47.00
35325;DHT22;35135;47.510;19.036;2023-12-20T06:35:49;21.10;46.30
35325;DHT22;35135;47.510;19.036;2023-12-20T06:38:14;21.10;46.40
35325;DHT22;35135;47.510;19.036;2023-12-20T06:40:40;21.00;46.70
35325;DHT22;35135;47.510;19.036;2023-12-20T06:43:06;21.00;46.80
35325;DHT22;35135;47.510;19.036;2023-12-20T06:45:32;20.90;46.90
35325;DHT22;35135;47.510;19.036;2023-12-20T06:47:58;20.90;47.00
35325;DHT22;35135;47.510;19.036;2023-12-20T06:50:24;20.90;47.00
35325;DHT22;35135;47.510;19.036;2023-12-20T06:52:49;20.90;46.90
35325;DHT22;35135;47.510;19.036;2023-12-20T06:55:15;20.90;47.00
35325;DHT22;35135;47.510;19.036;2023-12-20T06:57:41;20.90;47.10
35325;DHT22;35135;47.510;19.036;2023-12-20T07:00:07;20.80;47.10
35325;DHT22;35135;47.510;19.036;2023-12-20T07:02:34;20.80;47.00
35325;DHT22;35135;47.510;19.036;2023-12-20T07:05:00;20.80;47.10
35325;DHT22;35135;47.510;19.036;2023-12-20T07:07:25;20.80;47.20
35325;DHT22;35135;47.510;19.036;2023-12-20T07:09:51;20.80;47.10
35325;DHT22;35135;47.510;19.036;2023-12-20T07:12:17;20.70;47.20
35325;DHT22;35135;47.510;19.036;2023-12-20T07:14:46;20.70;47.20
35325;DHT22;35135;47.510;19.036;2023-12-20T07:17:12;20.70;47.20
35325;DHT22;35135;47.510;19.036;2023-12-20T07:19:41;20.70;47.40
35325;DHT22;35135;47.510;19.036;2023-12-20T07:22:07;20.70;47.30
35325;DHT22;35135;47.510;19.036;2023-12-20T07:24:33;20.70;47.40
35325;DHT22;35135;47.510;19.036;2023-12-20T07:27:00;20.60;47.40
35325;DHT22;35135;47.510;19.036;2023-12-20T07:29:26;20.60;47.50
35325;DHT22;35135;47.510;19.036;2023-12-20T07:31:53;20.60;47.40
35325;DHT22;35135;47.510;19.036;2023-12-20T07:34:20;20.60;47.50
35325;DHT22;35135;47.510;19.036;2023-12-20T07:36:46;20.50;47.50
35325;DHT22;35135;47.510;19.036;2023-12-20T07:39:11;20.50;47.50
35325;DHT22;35135;47.510;19.036;2023-12-20T07:41:37;20.50;47.50
35325;DHT22;35135;47.510;19.036;2023-12-20T07:44:04;20.50;47.50
35325;DHT22;35135;47.510;19.036;2023-12-20T07:46:30;20.50;47.60
35325;DHT22;35135;47.510;19.036;2023-12-20T07:48:56;20.50;47.60
35325;DHT22;35135;47.510;19.036;2023-12-20T07:51:21;20.50;47.60
35325;DHT22;35135;47.510;19.036;2023-12-20T07:53:47;20.40;47.50
35325;DHT22;35135;47.510;19.036;2023-12-20T07:56:19;20.40;47.60
35325;DHT22;35135;47.510;19.036;2023-12-20T07:58:46;20.40;47.60
35325;DHT22;35135;47.510;19.036;2023-12-20T08:01:15;20.40;47.60
35325;DHT22;35135;47.510;19.036;2023-12-20T08:03:41;20.40;47.50
35325;DHT22;35135;47.510;19.036;2023-12-20T08:06:06;20.40;47.60
35325;DHT22;35135;47.510;19.036;2023-12-20T08:08:32;20.40;47.60
35325;DHT22;35135;47.510;19.036;2023-12-20T08:10:58;20.40;47.60
35325;DHT22;35135;47.510;19.036;2023-12-20T08:13:26;20.40;47.60
35325;DHT22;35135;47.510;19.036;2023-12-20T08:15:52;20.40;47.60
35325;DHT22;35135;47.510;19.036;2023-12-20T08:18:18;20.40;47.60
35325;DHT22;35135;47.510;19.036;2023-12-20T08:20:44;20.40;47.60
35325;DHT22;35135;47.510;19.036;2023-12-20T08:23:09;20.30;47.60
35325;DHT22;35135;47.510;19.036;2023-12-20T08:25:35;20.30;47.60
35325;DHT22;35135;47.510;19.036;2023-12-20T08:28:04;20.30;47.60
35325;DHT22;35135;47.510;19.036;2023-12-20T08:30:30;20.30;47.60
35325;DHT22;35135;47.510;19.036;2023-12-20T08:32:57;20.30;47.60
35325;DHT22;35135;47.510;19.036;2023-12-20T08:35:22;20.30;47.60
35325;DHT22;35135;47.510;19.036;2023-12-20T08:37:49;20.30;47.60
35325;DHT22;35135;47.510;19.036;2023-12-20T08:40:15;20.30;47.60
35325;DHT22;35135;47.510;19.036;2023-12-20T08:42:40;20.30;47.60
35325;DHT22;35135;47.510;19.036;2023-12-20T08:45:06;20.30;47.60
35325;DHT22;35135;47.510;19.036;2023-12-20T08:47:32;20.30;47.60
35325;DHT22;35135;47.510;19.036;2023-12-20T08:49:58;20.30;47.60
35325;DHT22;35135;47.510;19.036;2023-12-20T08:52:25;20.20;47.50
35325;DHT22;35135;47.510;19.036;2023-12-20T08:54:53;20.20;47.50
35325;DHT22;35135;47.510;19.036;2023-12-20T08:57:22;20.20;47.60
35325;DHT22;35135;47.510;19.036;2023-12-20T08:59:50;20.20;47.50
35325;DHT22;35135;47.510;19.036;2023-12-20T09:02:16;20.20;47.50
35325;DHT22;35135;47.510;19.036;2023-12-20T09:04:43;20.20;47.50
35325;DHT22;35135;47.510;19.036;2023-12-20T09:07:24;20.20;47.50
35325;DHT22;35135;47.510;19.036;2023-12-20T09:09:50;20.20;47.50
35325;DHT22;35135;47.510;19.036;2023-12-20T09:12:18;20.20;47.50
35325;DHT22;35135;47.510;19.036;2023-12-20T09:14:45;20.20;47.50
35325;DHT22;35135;47.510;19.036;2023-12-20T09:17:11;20.20;47.60
35325;DHT22;35135;47.510;19.036;2023-12-20T09:19:37;20.20;47.50
35325;DHT22;35135;47.510;19.036;2023-12-20T09:22:04;20.20;47.50
35325;DHT22;35135;47.510;19.036;2023-12-20T09:24:30;20.20;47.60
35325;DHT22;35135;47.510;19.036;2023-12-20T09:26:56;20.20;48.20
35325;DHT22;35135;47.510;19.036;2023-12-20T09:29:22;20.20;47.60
35325;DHT22;35135;47.510;19.036;2023-12-20T09:31:48;20.20;47.60
35325;DHT22;35135;47.510;19.036;2023-12-20T09:34:15;20.20;47.60
35325;DHT22;35135;47.510;19.036;2023-12-20T09:36:42;20.20;47.60
35325;DHT22;35135;47.510;19.036;2023-12-20T09:39:15;20.20;47.60
35325;DHT22;35135;47.510;19.036;2023-12-20T09:41:45;20.10;47.60
35325;DHT22;35135;47.510;19.036;2023-12-20T09:44:16;20.20;47.60
35325;DHT22;35135;47.510;19.036;2023-12-20T09:46:44;20.20;47.60
35325;DHT22;35135;47.510;19.036;2023-12-20T09:49:11;20.10;47.50
35325;DHT22;35135;47.510;19.036;2023-12-20T09:51:38;20.10;47.60
35325;DHT22;35135;47.510;19.036;2023-12-20T09:54:05;20.20;47.60
35325;DHT22;35135;47.510;19.036;2023-12-20T09:56:31;20.10;47.60
35325;DHT22;35135;47.510;19.036;2023-12-20T09:58:56;20.10;47.60
35325;DHT22;35135;47.510;19.036;2023-12-20T10:01:23;20.10;47.60
35325;DHT22;35135;47.510;19.036;2023-12-20T10:04:09;20.10;47.60
35325;DHT22;35135;47.510;19.036;2023-12-20T10:06:44;20.10;47.60
35325;DHT22;35135;47.510;19.036;2023-12-20T10:09:11;20.10;48.20
35325;DHT22;35135;47.510;19.036;2023-12-20T10:11:37;20.10;47.60
35325;DHT22;35135;47.510;19.036;2023-12-20T10:14:04;20.10;47.60
35325;DHT22;35135;47.510;19.036;2023-12-20T10:16:31;20.10;47.60
35325;DHT22;35135;47.510;19.036;2023-12-20T10:18:58;20.10;47.70
35325;DHT22;35135;47.510;19.036;2023-12-20T10:21:24;20.10;47.70
35325;DHT22;35135;47.510;19.036;2023-12-20T10:23:53;20.10;47.80
35325;DHT22;35135;47.510;19.036;2023-12-20T10:26:20;20.10;47.70
35325;DHT22;35135;47.510;19.036;2023-12-20T10:28:49;20.10;47.70
35325;DHT22;35135;47.510;19.036;2023-12-20T10:31:31;20.10;47.70
35325;DHT22;35135;47.510;19.036;2023-12-20T10:33:58;20.00;47.60
35325;DHT22;35135;47.510;19.036;2023-12-20T10:36:27;20.10;47.70
35325;DHT22;35135;47.510;19.036;2023-12-20T10:38:55;20.00;47.70
35325;DHT22;35135;47.510;19.036;2023-12-20T10:41:32;20.00;47.60
35325;DHT22;35135;47.510;19.036;2023-12-20T10:44:04;20.00;47.70
35325;DHT22;35135;47.510;19.036;2023-12-20T10:46:30;20.00;47.70
35325;DHT22;35135;47.510;19.036;2023-12-20T10:48:58;20.00;47.70
35325;DHT22;35135;47.510;19.036;2023-12-20T10:51:25;20.00;47.70
35325;DHT22;35135;47.510;19.036;2023-12-20T10:53:55;20.00;47.70
35325;DHT22;35135;47.510;19.036;2023-12-20T10:56:22;20.00;47.70
35325;DHT22;35135;47.510;19.036;2023-12-20T10:58:49;20.00;47.60
35325;DHT22;35135;47.510;19.036;2023-12-20T11:01:17;20.00;47.70
35325;DHT22;35135;47.510;19.036;2023-12-20T11:03:53;20.00;47.70
35325;DHT22;35135;47.510;19.036;2023-12-20T11:06:53;20.00;47.70
35325;DHT22;35135;47.510;19.036;2023-12-20T11:09:25;20.00;47.70
35325;DHT22;35135;47.510;19.036;2023-12-20T11:17:10;20.00;47.80
35325;DHT22;35135;47.510;19.036;2023-12-20T11:22:29;20.00;48.00
35325;DHT22;35135;47.510;19.036;2023-12-20T11:25:05;20.00;48.10
35325;DHT22;35135;47.510;19.036;2023-12-20T11:27:34;20.00;48.10
35325;DHT22;35135;47.510;19.036;2023-12-20T11:30:03;20.00;48.30
35325;DHT22;35135;47.510;19.036;2023-12-20T11:32:29;20.00;48.40
35325;DHT22;35135;47.510;19.036;2023-12-20T11:34:59;20.00;48.70
35325;DHT22;35135;47.510;19.036;2023-12-20T11:37:30;20.00;48.70
35325;DHT22;35135;47.510;19.036;2023-12-20T11:40:06;20.10;48.90
35325;DHT22;35135;47.510;19.036;2023-12-20T11:42:50;20.10;49.00
35325;DHT22;35135;47.510;19.036;2023-12-20T11:45:19;20.10;49.40
35325;DHT22;35135;47.510;19.036;2023-12-20T11:47:48;20.00;49.60
35325;DHT22;35135;47.510;19.036;2023-12-20T11:50:18;20.10;49.90
35325;DHT22;35135;47.510;19.036;2023-12-20T11:52:44;20.10;50.00
35325;DHT22;35135;47.510;19.036;2023-12-20T11:55:10;20.10;50.20
35325;DHT22;35135;47.510;19.036;2023-12-20T11:57:36;20.10;50.30
35325;DHT22;35135;47.510;19.036;2023-12-20T12:00:03;20.10;50.40
35325;DHT22;35135;47.510;19.036;2023-12-20T12:02:30;20.10;50.40
35325;DHT22;35135;47.510;19.036;2023-12-20T12:04:56;20.10;50.30
35325;DHT22;35135;47.510;19.036;2023-12-20T12:07:24;20.10;50.40
35325;DHT22;35135;47.510;19.036;2023-12-20T12:09:50;20.20;50.40
35325;DHT22;35135;47.510;19.036;2023-12-20T12:12:16;20.10;50.60
35325;DHT22;35135;47.510;19.036;2023-12-20T12:14:42;20.20;50.70
35325;DHT22;35135;47.510;19.036;2023-12-20T12:17:14;20.20;50.50
35325;DHT22;35135;47.510;19.036;2023-12-20T12:19:43;20.20;50.50
35325;DHT22;35135;47.510;19.036;2023-12-20T12:22:13;20.20;50.60
35325;DHT22;35135;47.510;19.036;2023-12-20T12:24:43;20.20;50.50
35325;DHT22;35135;47.510;19.036;2023-12-20T12:27:10;20.20;50.60
35325;DHT22;35135;47.510;19.036;2023-12-20T12:29:36;20.20;51.20
35325;DHT22;35135;47.510;19.036;2023-12-20T12:32:06;20.20;50.70
35325;DHT22;35135;47.510;19.036;2023-12-20T12:34:33;20.20;50.90
35325;DHT22;35135;47.510;19.036;2023-12-20T12:37:00;20.20;51.10
35325;DHT22;35135;47.510;19.036;2023-12-20T12:39:26;20.20;51.00
35325;DHT22;35135;47.510;19.036;2023-12-20T12:41:52;20.20;50.90
35325;DHT22;35135;47.510;19.036;2023-12-20T12:44:18;20.20;51.00
35325;DHT22;35135;47.510;19.036;2023-12-20T12:46:47;20.30;51.00
35325;DHT22;35135;47.510;19.036;2023-12-20T12:49:15;20.20;51.20
35325;DHT22;35135;47.510;19.036;2023-12-20T12:51:41;20.30;51.10
35325;DHT22;35135;47.510;19.036;2023-12-20T12:54:08;20.20;50.90
35325;DHT22;35135;47.510;19.036;2023-12-20T12:56:38;20.30;51.00
35325;DHT22;35135;47.510;19.036;2023-12-20T12:59:04;20.20;51.00
35325;DHT22;35135;47.510;19.036;2023-12-20T13:01:31;20.20;50.90
35325;DHT22;35135;47.510;19.036;2023-12-20T13:03:57;20.20;51.30
35325;DHT22;35135;47.510;19.036;2023-12-20T13:06:23;20.20;51.40
35325;DHT22;35135;47.510;19.036;2023-12-20T13:08:49;20.30;51.00
35325;DHT22;35135;47.510;19.036;2023-12-20T13:11:15;20.20;51.20
35325;DHT22;35135;47.510;19.036;2023-12-20T13:13:40;20.30;51.40
35325;DHT22;35135;47.510;19.036;2023-12-20T13:16:06;20.30;51.30
35325;DHT22;35135;47.510;19.036;2023-12-20T13:18:32;20.30;51.40
35325;DHT22;35135;47.510;19.036;2023-12-20T13:20:57;20.30;51.30
35325;DHT22;35135;47.510;19.036;2023-12-20T13:23:23;20.30;51.40
35325;DHT22;35135;47.510;19.036;2023-12-20T13:25:49;20.30;51.30
35325;DHT22;35135;47.510;19.036;2023-12-20T13:28:15;20.20;51.50
35325;DHT22;35135;47.510;19.036;2023-12-20T13:30:40;20.30;51.20
35325;DHT22;35135;47.510;19.036;2023-12-20T13:33:06;20.30;52.00
35325;DHT22;35135;47.510;19.036;2023-12-20T13:35:32;20.30;51.60
35325;DHT22;35135;47.510;19.036;2023-12-20T13:37:59;20.30;52.60
35325;DHT22;35135;47.510;19.036;2023-12-20T13:40:24;20.30;52.50
35325;DHT22;35135;47.510;19.036;2023-12-20T13:42:50;20.30;52.40
35325;DHT22;35135;47.510;19.036;2023-12-20T13:45:16;20.30;51.90
35325;DHT22;35135;47.510;19.036;2023-12-20T13:47:42;20.30;52.20
35325;DHT22;35135;47.510;19.036;2023-12-20T13:50:08;20.30;52.70
35325;DHT22;35135;47.510;19.036;2023-12-20T13:52:33;20.30;52.20
35325;DHT22;35135;47.510;19.036;2023-12-20T13:54:59;20.40;52.20
35325;DHT22;35135;47.510;19.036;2023-12-20T13:57:24;20.40;52.30
35325;DHT22;35135;47.510;19.036;2023-12-20T13:59:50;20.40;52.10
35325;DHT22;35135;47.510;19.036;2023-12-20T14:02:16;20.40;52.50
35325;DHT22;35135;47.510;19.036;2023-12-20T14:04:42;20.40;51.90
35325;DHT22;35135;47.510;19.036;2023-12-20T14:07:08;20.40;52.10
35325;DHT22;35135;47.510;19.036;2023-12-20T14:09:35;20.40;52.20
35325;DHT22;35135;47.510;19.036;2023-12-20T14:12:00;20.40;51.80
35325;DHT22;35135;47.510;19.036;2023-12-20T14:14:26;20.40;52.00
35325;DHT22;35135;47.510;19.036;2023-12-20T14:16:52;20.40;52.00
35325;DHT22;35135;47.510;19.036;2023-12-20T14:19:17;20.40;51.80
35325;DHT22;35135;47.510;19.036;2023-12-20T14:21:43;20.40;51.80
35325;DHT22;35135;47.510;19.036;2023-12-20T14:24:12;20.40;51.70
35325;DHT22;35135;47.510;19.036;2023-12-20T14:26:40;20.40;52.70
35325;DHT22;35135;47.510;19.036;2023-12-20T14:29:07;20.40;52.20
35325;DHT22;35135;47.510;19.036;2023-12-20T14:31:33;20.40;52.20
35325;DHT22;35135;47.510;19.036;2023-12-20T14:33:59;20.40;51.80
35325;DHT22;35135;47.510;19.036;2023-12-20T14:36:26;20.40;52.10
35325;DHT22;35135;47.510;19.036;2023-12-20T14:38:52;20.40;52.20
35325;DHT22;35135;47.510;19.036;2023-12-20T14:41:18;20.40;52.00
35325;DHT22;35135;47.510;19.036;2023-12-20T14:43:44;20.40;52.50
35325;DHT22;35135;47.510;19.036;2023-12-20T14:46:10;20.40;51.80
35325;DHT22;35135;47.510;19.036;2023-12-20T14:48:36;20.40;51.80
35325;DHT22;35135;47.510;19.036;2023-12-20T14:51:02;20.40;51.70
35325;DHT22;35135;47.510;19.036;2023-12-20T14:53:27;20.40;51.60
35325;DHT22;35135;47.510;19.036;2023-12-20T14:55:53;20.40;51.50
35325;DHT22;35135;47.510;19.036;2023-12-20T14:58:19;20.40;51.50
35325;DHT22;35135;47.510;19.036;2023-12-20T15:00:44;20.40;51.40
35325;DHT22;35135;47.510;19.036;2023-12-20T15:03:10;20.40;51.40
35325;DHT22;35135;47.510;19.036;2023-12-20T15:05:36;20.40;51.30
35325;DHT22;35135;47.510;19.036;2023-12-20T15:08:02;20.30;51.30
35325;DHT22;35135;47.510;19.036;2023-12-20T15:10:28;20.40;51.30
35325;DHT22;35135;47.510;19.036;2023-12-20T15:12:53;20.40;51.20
35325;DHT22;35135;47.510;19.036;2023-12-20T15:15:21;20.30;51.10
35325;DHT22;35135;47.510;19.036;2023-12-20T15:17:47;20.30;51.10
35325;DHT22;35135;47.510;19.036;2023-12-20T15:20:12;20.40;51.10